Time;durP1;ratioP1;P1;durP2;ratioP2;P2;SDS_P1;SDS_P2;PMS_P1;PMS_P2;Temp;Humidity;BMP_temperature;BMP_pressure;BME280_temperature;BME280_humidity;BME280_pressure;Samples;Min_cycle;Max_cycle;Signal;HPM_P1;HPM_P2
2022/10/14 00:00:14;;;;;;;10.35;3.90;;;;;;;16.39;96.95;100779.47;5028011;28;20086;-69
2022/10/14 00:02:40;;;;;;;13.60;4.30;;;;;;;16.50;96.92;100784.91;5032138;28;20052;-68
2022/10/14 00:05:06;;;;;;;12.85;4.75;;;;;;;16.44;96.68;100783.72;5031392;28;20034;-66
2022/10/14 00:07:31;;;;;;;9.93;4.55;;;;;;;16.31;97.78;100769.78;5018540;28;20038;-69
2022/10/14 00:09:57;;;;;;;14.48;4.85;;;;;;;16.35;98.08;100773.25;5026317;28;20033;-69
2022/10/14 00:12:22;;;;;;;9.40;4.65;;;;;;;16.35;97.45;100781.41;5004130;28;20030;-69
2022/10/14 00:14:48;;;;;;;8.23;4.22;;;;;;;16.38;97.54;100780.63;5030612;28;20114;-68
2022/10/14 00:17:13;;;;;;;14.38;4.70;;;;;;;16.43;97.66;100782.19;5018738;28;20031;-69
2022/10/14 00:19:40;;;;;;;14.38;4.85;;;;;;;16.43;97.44;100780.25;5028309;28;20033;-69
2022/10/14 00:22:05;;;;;;;13.85;5.18;;;;;;;16.36;98.25;100777.50;5029410;28;20025;-69
2022/10/14 00:24:30;;;;;;;13.68;4.70;;;;;;;16.46;98.13;100774.00;5021183;28;20117;-69
2022/10/14 00:26:56;;;;;;;15.45;4.55;;;;;;;16.39;98.14;100775.97;5030214;28;20041;-69
2022/10/14 00:29:21;;;;;;;11.63;4.88;;;;;;;16.30;98.56;100772.88;5031046;28;20041;-69
2022/10/14 00:31:47;;;;;;;10.85;5.13;;;;;;;16.28;99.42;100771.31;5029823;28;20033;-69
2022/10/14 00:34:14;;;;;;;10.75;4.40;;;;;;;16.30;98.85;100768.19;5026671;28;20092;-69
2022/10/14 00:36:41;;;;;;;11.77;4.95;;;;;;;16.37;98.56;100768.22;5023298;28;20045;-69
2022/10/14 00:39:08;;;;;;;10.38;4.45;;;;;;;16.32;99.02;100768.59;5023738;28;20040;-69
2022/10/14 00:41:36;;;;;;;11.13;4.35;;;;;;;16.26;99.49;100779.09;5030551;28;20033;-69
2022/10/14 00:44:14;;;;;;;13.23;4.50;;;;;;;16.22;99.95;100778.31;5023920;28;20107;-68
2022/10/14 00:46:42;;;;;;;11.45;5.10;;;;;;;16.23;99.68;100779.09;5025146;28;20500;-67
2022/10/14 00:49:27;;;;;;;9.45;4.28;;;;;;;16.24;99.76;100770.53;5031248;28;20043;-67
2022/10/14 00:51:57;;;;;;;11.50;4.18;;;;;;;15.91;100.00;100779.09;5031203;28;20072;-67
2022/10/14 00:54:28;;;;;;;13.63;5.18;;;;;;;15.90;100.00;100777.53;5029460;28;20071;-67
2022/10/14 00:56:53;;;;;;;13.27;4.97;;;;;;;15.97;100.00;100776.75;5030648;28;20029;-67
2022/10/14 00:59:19;;;;;;;11.95;5.30;;;;;;;16.11;100.00;100776.75;5020323;28;20425;-67
2022/10/14 01:01:45;;;;;;;12.13;5.20;;;;;;;16.20;100.00;100774.44;5027517;28;20029;-70
2022/10/14 01:04:10;;;;;;;9.90;4.85;;;;;;;16.22;100.00;100772.88;5028803;28;20037;-69
2022/10/14 01:06:49;;;;;;;12.70;5.03;;;;;;;16.24;100.00;100765.09;5022767;28;20048;-70
2022/10/14 01:09:40;;;;;;;11.07;4.05;;;;;;;16.21;100.00;100775.97;5026101;28;20033;-69
2022/10/14 01:12:23;;;;;;;14.07;5.80;;;;;;;16.09;100.00;100763.56;5016267;28;20049;-68
2022/10/14 01:15:11;;;;;;;15.27;5.10;;;;;;;16.23;100.00;100760.06;5026248;28;20029;-68
2022/10/14 01:17:48;;;;;;;14.18;5.03;;;;;;;16.27;100.00;100761.63;5025240;28;20036;-68
2022/10/14 01:20:44;;;;;;;18.77;5.88;;;;;;;16.23;100.00;100755.41;5030426;28;20048;-68
2022/10/14 01:23:32;;;;;;;15.55;5.88;;;;;;;16.04;100.00;100763.97;5019286;28;20037;-67
2022/10/14 01:26:12;;;;;;;11.07;4.82;;;;;;;16.15;100.00;100755.78;5026593;28;20026;-68
2022/10/14 01:28:37;;;;;;;15.13;5.28;;;;;;;16.22;100.00;100755.78;5018720;28;20533;-68
2022/10/14 01:31:08;;;;;;;10.95;4.55;;;;;;;16.28;100.00;100755.00;5024818;28;20112;-68
2022/10/14 01:33:45;;;;;;;16.25;5.72;;;;;;;16.30;99.99;100762.75;5028895;28;20136;-67
2022/10/14 01:36:27;;;;;;;14.75;4.85;;;;;;;16.36;99.83;100752.28;5029478;28;20033;-68
2022/10/14 01:38:59;;;;;;;13.48;5.40;;;;;;;16.37;99.42;100754.63;5028005;28;20045;-67
2022/10/14 01:41:31;;;;;;;17.13;5.53;;;;;;;16.33;99.04;100755.78;5028208;28;20041;-68
2022/10/14 01:44:03;;;;;;;14.55;7.03;;;;;;;16.42;99.12;100745.28;5024835;28;21643;-68
2022/10/14 01:46:30;;;;;;;15.23;5.22;;;;;;;16.17;100.00;100748.03;5025660;28;20092;-68
2022/10/14 01:49:02;;;;;;;15.38;5.10;;;;;;;16.11;100.00;100747.66;5028567;28;20083;-68
2022/10/14 01:51:42;;;;;;;12.27;5.63;;;;;;;16.08;100.00;100739.50;5030120;28;20044;-67
2022/10/14 01:54:13;;;;;;;10.77;5.03;;;;;;;16.10;100.00;100745.34;5021088;28;20065;-68
2022/10/14 01:56:42;;;;;;;14.30;5.82;;;;;;;15.95;100.00;100738.34;5029013;28;20413;-67
2022/10/14 01:59:10;;;;;;;16.27;5.40;;;;;;;15.98;100.00;100735.63;5027914;28;20036;-68
2022/10/14 02:01:35;;;;;;;15.38;6.07;;;;;;;15.98;100.00;100735.63;5014120;28;20444;-67
2022/10/14 02:04:01;;;;;;;19.52;5.95;;;;;;;16.01;100.00;100729.41;5019221;28;20029;-67
2022/10/14 02:06:37;;;;;;;17.15;5.82;;;;;;;16.13;100.00;100726.31;5027905;28;20029;-68
2022/10/14 02:09:19;;;;;;;14.48;5.88;;;;;;;16.09;100.00;100730.19;5029072;28;20056;-67
2022/10/14 02:12:19;;;;;;;15.88;6.15;;;;;;;16.18;100.00;100728.63;5022884;28;20037;-68
2022/10/14 02:15:08;;;;;;;17.73;6.50;;;;;;;16.20;100.00;100728.25;5018477;28;20516;-70
2022/10/14 02:17:48;;;;;;;15.48;5.70;;;;;;;16.25;100.00;100723.19;4985167;28;20047;-68
2022/10/14 02:20:27;;;;;;;13.80;5.82;;;;;;;16.26;100.00;100721.22;5026470;28;20150;-68
2022/10/14 02:23:05;;;;;;;20.33;5.75;;;;;;;16.28;99.95;100716.16;5029943;28;20031;-68
2022/10/14 02:25:35;;;;;;;15.13;5.13;;;;;;;16.32;99.63;100722.38;5029557;28;20117;-68
2022/10/14 02:28:03;;;;;;;16.75;7.00;;;;;;;16.26;99.23;100718.50;5022817;28;20037;-68
2022/10/14 02:30:33;;;;;;;12.75;5.70;;;;;;;16.33;98.94;100715.00;5029830;28;20038;-68
2022/10/14 02:33:03;;;;;;;17.55;6.10;;;;;;;16.31;98.46;100720.06;5029620;28;20113;-68
2022/10/14 02:35:32;;;;;;;20.65;6.80;;;;;;;16.25;99.23;100722.41;5015688;28;20128;-68
2022/10/14 02:38:04;;;;;;;16.20;6.00;;;;;;;16.23;98.90;100722.00;5024429;28;20083;-68
2022/10/14 02:40:37;;;;;;;14.90;6.03;;;;;;;16.22;99.63;100723.94;5028428;28;20044;-68
2022/10/14 02:43:03;;;;;;;14.80;5.28;;;;;;;16.31;99.55;100720.06;5021159;28;20041;-68
2022/10/14 02:45:31;;;;;;;19.17;6.68;;;;;;;16.28;99.24;100727.03;5027266;28;20083;-69
2022/10/14 02:47:59;;;;;;;16.95;6.00;;;;;;;16.26;99.05;100724.72;5029724;28;20044;-69
2022/10/14 02:50:24;;;;;;;15.38;5.57;;;;;;;16.28;99.55;100719.69;5021744;28;20029;-68
2022/10/14 02:52:50;;;;;;;15.15;5.93;;;;;;;16.28;99.26;100722.38;5021990;28;20140;-68
2022/10/14 02:55:16;;;;;;;14.70;5.75;;;;;;;16.21;99.37;100724.34;5026940;28;20494;-68
2022/10/14 02:57:43;;;;;;;17.95;5.55;;;;;;;16.21;99.76;100719.69;5029517;28;20485;-68
2022/10/14 03:00:09;;;;;;;20.17;6.38;;;;;;;16.23;99.49;100720.09;5025059;28;20039;-67
2022/10/14 03:02:35;;;;;;;16.02;6.20;;;;;;;16.20;99.85;100723.56;5027271;28;20034;-67
2022/10/14 03:05:02;;;;;;;19.05;6.53;;;;;;;16.12;99.69;100719.31;5027461;28;20026;-68
2022/10/14 03:07:27;;;;;;;19.05;6.22;;;;;;;16.01;100.00;100717.75;5030366;28;20132;-68
2022/10/14 03:09:57;;;;;;;17.75;6.50;;;;;;;16.09;100.00;100717.38;5031277;28;20025;-68
2022/10/14 03:12:24;;;;;;;19.55;5.75;;;;;;;16.10;100.00;100718.16;5025426;28;20112;-67
2022/10/14 03:14:50;;;;;;;16.55;5.35;;;;;;;16.00;100.00;100719.72;5041078;28;20029;-67
2022/10/14 03:17:17;;;;;;;20.73;6.93;;;;;;;15.96;100.00;100718.16;5028511;28;20060;-67
2022/10/14 03:19:43;;;;;;;14.48;5.60;;;;;;;16.10;100.00;100721.63;5031359;28;20121;-68
2022/10/14 03:22:15;;;;;;;17.77;6.00;;;;;;;16.13;100.00;100710.00;5027702;28;20048;-67
2022/10/14 03:24:41;;;;;;;23.60;7.13;;;;;;;16.09;100.00;100716.59;5030178;28;20037;-68
2022/10/14 03:27:36;;;;;;;14.23;5.45;;;;;;;16.06;100.00;100707.31;5009209;28;20037;-67
2022/10/14 03:30:07;;;;;;;15.15;6.45;;;;;;;16.03;100.00;100713.50;5027196;28;20036;-67
2022/10/14 03:32:37;;;;;;;19.80;7.00;;;;;;;16.16;100.00;100708.44;5018339;28;20052;-67
2022/10/14 03:35:23;;;;;;;14.73;5.80;;;;;;;16.19;100.00;100707.66;5020505;28;20048;-69
2022/10/14 03:37:53;;;;;;;16.20;6.35;;;;;;;15.97;100.00;100701.47;5017621;28;20029;-69
2022/10/14 03:40:24;;;;;;;;;;;;;;;15.92;100.00;100710.03;5024107;28;20029;-68
2022/10/14 03:42:50;;;;;;;15.57;5.38;;;;;;;16.08;100.00;100707.69;5030688;28;19935;-68
2022/10/14 03:45:15;;;;;;;17.75;6.45;;;;;;;16.04;100.00;100701.47;5029129;28;20033;-68
2022/10/14 03:47:42;;;;;;;22.13;6.88;;;;;;;16.03;100.00;100710.00;5025053;28;20037;-68
2022/10/14 03:50:08;;;;;;;23.40;6.93;;;;;;;16.10;100.00;100704.56;5030052;28;20029;-68
2022/10/14 03:52:42;;;;;;;21.17;6.10;;;;;;;16.20;100.00;100706.50;5030288;28;20056;-68
2022/10/14 03:55:19;;;;;;;20.38;6.72;;;;;;;16.14;100.00;100706.09;5018018;28;20551;-68
2022/10/14 03:57:47;;;;;;;22.02;6.47;;;;;;;16.22;99.95;100702.22;5040678;28;20037;-68
2022/10/14 04:00:13;;;;;;;18.58;7.05;;;;;;;16.20;99.69;100709.97;5028324;28;20044;-68
2022/10/14 04:02:40;;;;;;;18.00;6.63;;;;;;;16.24;99.83;100705.31;5031771;28;20088;-68
2022/10/14 04:05:21;;;;;;;15.07;5.60;;;;;;;16.27;99.99;100714.63;5024835;28;20029;-68
2022/10/14 04:07:48;;;;;;;22.73;6.90;;;;;;;16.22;99.97;100706.88;5025618;28;20029;-68
2022/10/14 04:10:14;;;;;;;24.63;7.70;;;;;;;16.13;99.97;100704.56;5031488;28;20038;-68
2022/10/14 04:12:49;;;;;;;22.38;6.00;;;;;;;16.20;100.00;100709.22;5029703;28;20079;-68
2022/10/14 04:15:21;;;;;;;22.00;6.55;;;;;;;16.17;100.00;100705.34;5025182;28;20041;-67
2022/10/14 04:18:10;;;;;;;24.10;6.57;;;;;;;16.17;100.00;100701.84;5013608;28;20069;-67
2022/10/14 04:20:37;;;;;;;24.55;7.10;;;;;;;16.12;100.00;100702.25;5029797;28;20025;-68
2022/10/14 04:23:03;;;;;;;23.88;6.30;;;;;;;16.12;100.00;100699.53;5005797;23;20042;-66
2022/10/14 04:25:28;;;;;;;20.60;6.18;;;;;;;16.15;100.00;100696.81;4998023;28;20042;-66
2022/10/14 04:28:01;;;;;;;25.90;7.20;;;;;;;16.18;100.00;100693.28;4996807;28;20125;-66
2022/10/14 04:30:38;;;;;;;16.90;5.55;;;;;;;16.13;100.00;100692.91;4993825;28;20133;-66
2022/10/14 04:33:06;;;;;;;18.60;6.13;;;;;;;16.12;100.00;100686.69;4995922;28;20482;-66
2022/10/14 04:35:32;;;;;;;18.63;6.70;;;;;;;16.10;100.00;100685.56;4988012;28;20088;-65
2022/10/14 04:37:59;;;;;;;20.20;6.75;;;;;;;16.11;100.00;100676.22;4986055;28;20573;-65
2022/10/14 04:40:27;;;;;;;20.60;6.90;;;;;;;16.13;100.00;100688.25;4988032;28;20035;-65
2022/10/14 04:42:57;;;;;;;27.23;7.78;;;;;;;16.32;99.04;100681.59;4986481;28;20033;-65
2022/10/14 04:45:28;;;;;;;20.55;6.65;;;;;;;16.15;100.00;100677.78;4987582;28;20118;-65
2022/10/14 04:47:58;;;;;;;;;;;;;;;16.18;100.00;100679.69;4983422;28;20045;-65
2022/10/14 04:50:25;;;;;;;15.68;6.82;;;;;;;16.12;100.00;100678.53;4985602;28;19956;-65
2022/10/14 04:53:29;;;;;;;17.42;5.72;;;;;;;16.17;100.00;100682.81;4946528;28;20035;-65
2022/10/14 04:56:13;;;;;;;17.27;5.72;;;;;;;16.21;100.00;100678.94;4927077;29;20074;-64
2022/10/14 04:58:49;;;;;;;22.17;6.38;;;;;;;16.10;100.00;100678.16;4972902;28;20062;-65
2022/10/14 05:01:17;;;;;;;16.85;6.55;;;;;;;16.14;100.00;100673.50;4980830;28;20069;-65
2022/10/14 05:03:43;;;;;;;23.48;6.95;;;;;;;16.21;100.00;100673.50;4984180;28;20402;-64
2022/10/14 05:06:10;;;;;;;23.30;7.55;;;;;;;16.23;100.00;100678.53;4986944;28;20105;-65
2022/10/14 05:08:40;;;;;;;21.93;6.80;;;;;;;16.21;100.00;100675.44;4985598;28;20066;-64
2022/10/14 05:11:08;;;;;;;19.73;5.82;;;;;;;16.26;100.00;100672.31;4983747;28;20034;-65
2022/10/14 05:13:46;;;;;;;18.55;6.10;;;;;;;16.15;100.00;100663.41;4987543;28;20054;-65
2022/10/14 05:16:17;;;;;;;18.58;6.53;;;;;;;16.20;100.00;100665.75;4987097;28;20033;-65
2022/10/14 05:18:42;;;;;;;21.88;6.07;;;;;;;16.25;100.00;100668.81;4984112;28;20034;-65
2022/10/14 05:21:10;;;;;;;23.20;6.15;;;;;;;16.17;100.00;100667.28;4999803;28;20034;-65
2022/10/14 05:23:46;;;;;;;19.95;5.32;;;;;;;16.21;100.00;100670.00;5001433;28;20041;-65
2022/10/14 05:26:11;;;;;;;19.25;6.32;;;;;;;16.20;100.00;100660.31;4986688;28;20377;-65
2022/10/14 05:28:40;;;;;;;14.82;6.00;;;;;;;16.15;100.00;100669.63;4978375;28;20376;-64
2022/10/14 05:31:07;;;;;;;16.75;6.22;;;;;;;15.96;100.00;100661.91;4997088;28;20459;-64
2022/10/14 05:33:37;;;;;;;17.77;6.38;;;;;;;16.01;100.00;100658.00;4983244;28;20037;-64
2022/10/14 05:36:03;;;;;;;28.13;6.68;;;;;;;15.95;100.00;100665.78;4971246;28;20049;-64
2022/10/14 05:38:32;;;;;;;15.07;5.82;;;;;;;16.03;100.00;100667.31;4988531;28;20026;-65
2022/10/14 05:40:58;;;;;;;20.02;6.32;;;;;;;16.07;100.00;100670.81;4991045;28;20026;-65
2022/10/14 05:43:24;;;;;;;24.88;7.32;;;;;;;16.09;100.00;100673.13;4994440;28;20501;-65
2022/10/14 05:45:50;;;;;;;18.65;6.32;;;;;;;16.11;100.00;100668.84;4983501;28;20057;-64
2022/10/14 05:48:16;;;;;;;19.13;6.22;;;;;;;16.06;100.00;100677.41;4990912;28;20082;-64
2022/10/14 05:50:42;;;;;;;14.32;5.50;;;;;;;16.07;100.00;100670.81;4987625;28;20034;-64
2022/10/14 05:53:11;;;;;;;18.63;5.88;;;;;;;15.97;100.00;100671.59;4986910;28;20022;-64
2022/10/14 05:55:40;;;;;;;21.13;5.93;;;;;;;16.03;100.00;100671.97;4996538;28;20053;-64
2022/10/14 05:58:08;;;;;;;16.80;6.70;;;;;;;15.96;100.00;100672.75;4988483;28;20045;-65
2022/10/14 06:00:37;;;;;;;20.48;6.90;;;;;;;16.01;100.00;100679.72;4983813;28;20049;-64
2022/10/14 06:03:11;;;;;;;18.15;6.13;;;;;;;16.10;100.00;100677.41;4983599;28;20583;-65
2022/10/14 06:05:37;;;;;;;17.08;5.97;;;;;;;16.04;100.00;100670.81;4982275;28;20042;-64
2022/10/14 06:08:03;;;;;;;18.58;6.97;;;;;;;15.95;100.00;100675.88;4985093;28;20121;-64
2022/10/14 06:10:31;;;;;;;20.65;7.47;;;;;;;15.97;100.00;100668.88;4984844;28;20113;-64
2022/10/14 06:12:58;;;;;;;17.50;5.85;;;;;;;16.08;100.00;100674.31;4988689;28;20410;-64
2022/10/14 06:15:24;;;;;;;15.73;6.35;;;;;;;16.08;100.00;100675.09;4979008;28;20023;-64
2022/10/14 06:17:50;;;;;;;20.15;7.57;;;;;;;16.01;100.00;100672.34;4991342;28;20604;-64
2022/10/14 06:20:16;;;;;;;23.58;7.38;;;;;;;16.02;100.00;100671.22;4993749;28;20038;-65
2022/10/14 06:22:41;;;;;;;17.05;6.15;;;;;;;15.84;100.00;100673.16;4988645;28;20413;-64
2022/10/14 06:25:07;;;;;;;23.48;7.32;;;;;;;15.92;100.00;100666.56;4981559;28;20026;-65
2022/10/14 06:27:33;;;;;;;16.48;6.65;;;;;;;16.01;100.00;100666.94;4988631;28;20109;-65
2022/10/14 06:29:58;;;;;;;25.20;9.00;;;;;;;16.02;100.00;100665.00;4988659;28;20037;-65
2022/10/14 06:32:23;;;;;;;19.98;7.00;;;;;;;15.92;100.00;100668.50;5001627;28;20042;-64
2022/10/14 06:34:49;;;;;;;19.30;6.68;;;;;;;15.76;100.00;100670.81;4983066;28;20375;-64
2022/10/14 06:37:14;;;;;;;19.45;6.95;;;;;;;15.92;100.00;100673.94;4990784;28;20034;-64
2022/10/14 06:39:41;;;;;;;18.75;6.47;;;;;;;16.01;100.00;100664.22;4992519;28;20154;-65
2022/10/14 06:42:07;;;;;;;22.83;7.35;;;;;;;16.04;100.00;100670.81;4989113;28;20030;-65
2022/10/14 06:44:32;;;;;;;18.23;6.15;;;;;;;16.13;100.00;100660.31;4996257;28;20033;-65
2022/10/14 06:46:58;;;;;;;22.70;7.00;;;;;;;16.07;100.00;100662.66;5000208;28;20038;-64
2022/10/14 06:49:23;;;;;;;17.35;6.32;;;;;;;16.13;100.00;100668.47;4994546;28;20026;-64
2022/10/14 06:51:49;;;;;;;21.30;8.45;;;;;;;16.03;100.00;100671.97;4993608;28;20030;-64
2022/10/14 06:54:15;;;;;;;16.63;7.00;;;;;;;16.01;100.00;100661.50;4988211;28;20042;-65
2022/10/14 06:56:40;;;;;;;23.05;7.28;;;;;;;15.87;100.00;100661.50;4992913;28;20030;-65
2022/10/14 06:59:06;;;;;;;20.23;7.78;;;;;;;15.96;100.00;100661.91;5002439;28;20117;-65
2022/10/14 07:01:31;;;;;;;16.58;7.40;;;;;;;16.03;100.00;100655.66;4995482;28;20046;-65
2022/10/14 07:03:57;;;;;;;26.10;7.72;;;;;;;16.04;100.00;100658.00;4985430;28;20121;-65
2022/10/14 07:06:22;;;;;;;19.35;6.80;;;;;;;16.01;100.00;100653.34;4986094;28;20027;-64
2022/10/14 07:08:48;;;;;;;24.92;8.07;;;;;;;16.01;100.00;100653.34;4988041;28;20562;-64
2022/10/14 07:11:13;;;;;;;21.25;7.97;;;;;;;16.02;100.00;100644.03;4988671;28;20041;-65
2022/10/14 07:13:38;;;;;;;20.83;7.80;;;;;;;16.07;100.00;100646.34;4989869;28;20034;-65
2022/10/14 07:16:04;;;;;;;19.98;6.55;;;;;;;16.09;100.00;100656.81;4989081;28;20145;-65
2022/10/14 07:18:30;;;;;;;21.13;7.70;;;;;;;16.07;100.00;100661.88;4991787;28;20042;-65
2022/10/14 07:20:59;;;;;;;18.30;6.65;;;;;;;15.97;100.00;100660.72;4991532;28;20038;-64
2022/10/14 07:23:25;;;;;;;23.80;7.18;;;;;;;15.94;100.00;100658.78;4994689;28;20394;-65
2022/10/14 07:25:50;;;;;;;19.83;7.13;;;;;;;16.03;100.00;100670.03;4989601;28;20034;-64
2022/10/14 07:28:16;;;;;;;23.75;7.57;;;;;;;15.95;100.00;100668.47;4982713;28;20026;-65
2022/10/14 07:30:41;;;;;;;25.65;8.13;;;;;;;16.08;100.00;100668.88;4988211;28;20049;-64
2022/10/14 07:33:07;;;;;;;18.48;6.78;;;;;;;16.14;100.00;100662.63;4990434;28;20042;-64
2022/10/14 07:35:32;;;;;;;21.10;7.40;;;;;;;16.21;100.00;100657.19;4990173;28;20026;-64
2022/10/14 07:37:58;;;;;;;23.80;8.45;;;;;;;16.22;100.00;100666.88;4991027;28;20496;-65
2022/10/14 07:40:25;;;;;;;17.60;6.68;;;;;;;16.16;100.00;100660.28;4990407;28;20101;-64
2022/10/14 07:42:50;;;;;;;22.42;7.57;;;;;;;16.14;100.00;100661.88;4987452;28;20030;-65
2022/10/14 07:45:17;;;;;;;19.40;7.55;;;;;;;16.19;100.00;100667.69;4986895;28;20410;-66
2022/10/14 07:47:46;;;;;;;25.40;8.30;;;;;;;16.23;100.00;100665.72;4986752;28;20045;-64
2022/10/14 07:50:11;;;;;;;23.35;8.25;;;;;;;16.13;100.00;100671.97;4987981;28;20053;-65
2022/10/14 07:52:37;;;;;;;20.08;7.20;;;;;;;16.15;100.00;100666.13;4985374;28;20061;-64
2022/10/14 07:55:04;;;;;;;18.83;7.10;;;;;;;16.10;100.00;100666.53;4991308;28;20568;-65
2022/10/14 07:57:29;;;;;;;20.30;6.78;;;;;;;16.11;100.00;100668.06;4983897;28;20022;-65
2022/10/14 07:59:55;;;;;;;24.90;7.70;;;;;;;16.23;100.00;100671.16;4984784;28;20093;-65
2022/10/14 08:02:22;;;;;;;21.33;8.35;;;;;;;16.28;100.00;100672.69;4983723;28;20053;-66
2022/10/14 08:04:51;;;;;;;24.58;7.07;;;;;;;16.40;100.00;100676.91;4989686;28;20394;-65
2022/10/14 08:07:17;;;;;;;26.33;9.05;;;;;;;16.30;100.00;100669.59;4986751;28;20390;-65
2022/10/14 08:09:42;;;;;;;24.05;7.50;;;;;;;16.35;100.00;100682.78;4988421;28;20036;-65
2022/10/14 08:12:08;;;;;;;18.90;7.57;;;;;;;16.43;100.00;100678.88;4987014;28;20031;-65
2022/10/14 08:14:33;;;;;;;20.52;7.13;;;;;;;16.52;100.00;100673.81;4988460;28;20420;-64
2022/10/14 08:16:59;;;;;;;23.17;7.30;;;;;;;16.52;100.00;100679.25;4990178;28;20421;-64
2022/10/14 08:19:24;;;;;;;21.52;7.30;;;;;;;16.54;100.00;100674.19;4986750;28;20038;-64
2022/10/14 08:21:50;;;;;;;19.27;7.60;;;;;;;16.57;100.00;100678.88;4990226;28;20029;-64
2022/10/14 08:24:16;;;;;;;22.35;7.65;;;;;;;16.61;100.00;100679.59;4989525;28;20046;-65
2022/10/14 08:26:52;;;;;;;22.02;7.53;;;;;;;16.63;99.47;100672.59;4986876;28;20041;-64
2022/10/14 08:29:18;;;;;;;24.92;6.97;;;;;;;16.64;99.25;100679.59;4986098;28;20398;-65
2022/10/14 08:31:43;;;;;;;20.70;7.95;;;;;;;16.60;99.07;100675.34;4985312;28;20034;-64
2022/10/14 08:34:10;;;;;;;28.95;8.52;;;;;;;16.58;99.30;100669.53;4989086;28;20486;-64
2022/10/14 08:36:35;;;;;;;24.15;8.15;;;;;;;16.63;98.64;100669.09;4988854;28;20037;-65
2022/10/14 08:39:00;;;;;;;27.60;7.28;;;;;;;16.54;98.47;100663.31;4990253;28;20042;-65
2022/10/14 08:41:57;;;;;;;27.38;9.57;;;;;;;16.48;98.77;100676.53;4984771;28;20046;-65
2022/10/14 08:44:46;;;;;;;22.40;7.38;;;;;;;16.38;98.90;100673.81;4986678;28;20042;-65
2022/10/14 08:47:14;;;;;;;26.13;8.35;;;;;;;16.35;98.91;100671.91;5007758;28;20407;-65
2022/10/14 08:49:50;;;;;;;18.23;7.15;;;;;;;16.41;98.75;100681.22;4985694;28;20088;-64
2022/10/14 08:52:21;;;;;;;20.92;7.78;;;;;;;16.41;98.84;100678.50;4983257;28;20033;-66
2022/10/14 08:54:51;;;;;;;19.30;7.75;;;;;;;16.55;98.85;100670.31;4991553;28;20026;-65
2022/10/14 08:57:19;;;;;;;22.67;7.55;;;;;;;16.61;98.60;100668.72;4993183;28;20111;-65
2022/10/14 08:59:45;;;;;;;27.38;8.32;;;;;;;16.49;98.83;100661.03;4980256;28;20050;-65
2022/10/14 09:02:21;;;;;;;20.88;7.82;;;;;;;16.61;98.38;100663.28;4986197;28;20402;-65
2022/10/14 09:04:46;;;;;;;25.02;7.60;;;;;;;16.73;98.44;100649.25;4987367;28;20038;-65
2022/10/14 09:07:16;;;;;;;21.05;8.73;;;;;;;16.80;98.27;100649.22;4988982;28;20548;-65
2022/10/14 09:10:06;;;;;;;21.27;7.55;;;;;;;16.76;97.17;100645.75;4986894;28;20066;-65
2022/10/14 09:12:34;;;;;;;20.88;7.32;;;;;;;16.90;97.18;100648.38;4940069;29;20098;-66
2022/10/14 09:15:20;;;;;;;19.23;6.50;;;;;;;17.02;94.85;100650.63;4941673;28;20051;-65
2022/10/14 09:18:00;;;;;;;24.70;6.90;;;;;;;17.08;95.41;100643.59;4940578;29;20086;-65
2022/10/14 09:20:26;;;;;;;24.37;8.33;;;;;;;17.04;94.69;100648.31;4946163;29;20043;-65
2022/10/14 09:23:16;;;;;;;16.50;6.72;;;;;;;17.11;94.72;100645.56;4943475;29;20078;-67
2022/10/14 09:26:07;;;;;;;16.50;6.65;;;;;;;17.13;93.87;100637.72;4946807;28;20046;-65
2022/10/14 09:28:37;;;;;;;18.30;7.15;;;;;;;17.08;92.64;100632.72;4931409;29;20058;-65
2022/10/14 09:31:05;;;;;;;27.45;8.18;;;;;;;16.99;92.82;100640.56;4944109;29;20050;-65
2022/10/14 09:33:33;;;;;;;20.42;6.78;;;;;;;17.14;93.01;100642.03;4944229;29;20360;-65
2022/10/14 09:35:59;;;;;;;19.90;6.63;;;;;;;17.25;92.95;100637.25;4946174;28;20395;-65
2022/10/14 09:38:26;;;;;;;17.70;7.13;;;;;;;17.38;92.31;100632.13;4946596;28;20408;-65
2022/10/14 09:40:57;;;;;;;14.93;5.47;;;;;;;17.54;92.25;100635.91;4943548;29;20171;-65
2022/10/14 09:43:23;;;;;;;14.13;5.80;;;;;;;17.57;90.97;100637.84;4944728;29;20043;-65
2022/10/14 09:46:03;;;;;;;21.35;6.70;;;;;;;17.56;89.31;100630.84;4944831;29;20499;-65
2022/10/14 09:48:31;;;;;;;16.55;6.13;;;;;;;17.55;87.34;100639.41;4927498;28;20080;-65
2022/10/14 09:50:59;;;;;;;15.32;5.57;;;;;;;17.46;86.18;100639.81;4983751;28;20469;-65
2022/10/14 09:53:33;;;;;;;17.50;6.35;;;;;;;17.50;86.68;100632.44;4983486;28;20037;-65
2022/10/14 09:56:01;;;;;;;15.93;5.90;;;;;;;17.72;86.55;100628.34;4986590;28;20395;-65
2022/10/14 09:58:49;;;;;;;16.33;6.65;;;;;;;17.75;85.53;100643.13;4986853;28;20038;-65
2022/10/14 10:01:18;;;;;;;26.70;6.68;;;;;;;17.91;85.14;100633.22;4987314;28;20110;-65
2022/10/14 10:03:47;;;;;;;15.40;6.05;;;;;;;17.87;84.81;100639.88;4987813;28;20387;-65
2022/10/14 10:06:17;;;;;;;12.68;5.10;;;;;;;18.08;84.92;100634.22;4984921;28;20045;-65
2022/10/14 10:08:52;;;;;;;16.48;5.88;;;;;;;18.27;83.23;100635.59;4985993;28;20057;-65
2022/10/14 10:11:38;;;;;;;16.38;5.65;;;;;;;18.32;83.12;100632.41;4985465;28;20501;-65
2022/10/14 10:14:21;;;;;;;17.67;6.47;;;;;;;17.92;82.24;100626.59;4981588;28;21807;-65
2022/10/14 10:16:49;;;;;;;12.15;4.78;;;;;;;17.70;83.39;100622.53;4995781;28;20461;-65
2022/10/14 10:19:30;;;;;;;13.85;6.00;;;;;;;17.88;83.62;100628.59;5017558;28;20490;-65
2022/10/14 10:22:18;;;;;;;22.48;6.20;;;;;;;18.22;82.32;100617.72;5003966;23;20043;-65
2022/10/14 10:24:51;;;;;;;14.40;5.30;;;;;;;18.38;82.80;100615.19;4982548;28;20097;-66
2022/10/14 10:27:25;;;;;;;15.63;5.10;;;;;;;18.32;81.62;100611.38;4988891;28;20114;-65
2022/10/14 10:29:51;;;;;;;16.20;5.60;;;;;;;18.31;80.58;100600.88;4990834;28;20074;-65
2022/10/14 10:32:35;;;;;;;13.15;4.70;;;;;;;18.41;80.51;100608.91;4987797;28;20022;-65
2022/10/14 10:35:26;;;;;;;13.45;4.45;;;;;;;18.65;80.58;100602.41;4958839;28;20035;-65
2022/10/14 10:38:20;;;;;;;9.60;3.53;;;;;;;18.96;80.57;100600.41;4967382;28;20427;-65
2022/10/14 10:41:02;;;;;;;13.32;4.00;;;;;;;19.15;79.95;100598.94;4968465;28;20034;-65
2022/10/14 10:43:43;;;;;;;10.95;3.78;;;;;;;19.26;77.52;100603.03;4972398;28;20061;-65
2022/10/14 10:46:31;;;;;;;11.68;4.30;;;;;;;19.43;76.74;100598.53;4963724;28;20039;-65
2022/10/14 10:49:32;;;;;;;10.32;3.80;;;;;;;19.12;75.00;100607.97;4968871;28;20034;-65
2022/10/14 10:52:09;;;;;;;8.40;4.07;;;;;;;19.13;75.20;100599.34;4958960;28;20054;-65
2022/10/14 10:55:03;;;;;;;12.02;4.65;;;;;;;19.10;76.64;100592.00;4965673;28;20298;-65
2022/10/14 10:57:44;;;;;;;13.05;5.13;;;;;;;19.32;75.50;100579.56;4968151;28;20034;-64
2022/10/14 11:00:19;;;;;;;11.65;4.75;;;;;;;19.33;73.97;100575.66;4959692;28;20031;-65
2022/10/14 11:02:57;;;;;;;9.23;3.85;;;;;;;19.21;74.18;100581.69;4971948;28;20447;-64
2022/10/14 11:05:37;;;;;;;8.75;4.05;;;;;;;18.88;74.33;100579.84;4970701;28;20039;-65
2022/10/14 11:14:31;;;;;;;9.23;4.35;;;;;;;18.95;75.76;100577.00;4971903;28;20035;-65
2022/10/14 11:17:13;;;;;;;11.20;4.75;;;;;;;18.64;77.61;100581.00;4970032;28;20034;-65
2022/10/14 11:20:22;;;;;;;9.60;4.00;;;;;;;18.80;78.11;100572.94;4962772;28;20034;-65
2022/10/14 11:23:17;;;;;;;9.57;4.05;;;;;;;19.03;77.14;100567.53;4958099;28;20047;-65
2022/10/14 11:25:54;;;;;;;11.68;3.92;;;;;;;19.23;76.47;100571.09;4966735;28;20511;-65
2022/10/14 11:28:43;;;;;;;10.60;4.13;;;;;;;19.31;75.79;100572.53;4971075;28;20101;-65
2022/10/14 11:31:30;;;;;;;11.55;4.60;;;;;;;19.36;74.90;100561.16;4967636;28;20027;-65
2022/10/14 11:34:38;;;;;;;10.52;4.97;;;;;;;19.44;74.84;100568.03;4968679;28;20519;-64
2022/10/14 11:37:06;;;;;;;10.20;4.68;;;;;;;19.04;75.65;100560.88;4964156;28;20042;-64
2022/10/14 11:40:16;;;;;;;9.02;3.58;;;;;;;19.10;76.44;100558.47;4969676;28;20133;-65